createdAt,value
2022-10-28T00:01:21.427Z,12.50
2022-10-28T00:03:49.943Z,12.50
2022-10-28T00:06:18.498Z,12.50
2022-10-28T00:08:45.765Z,12.50
2022-10-28T00:11:14.576Z,12.40
2022-10-28T00:13:43.036Z,12.50
2022-10-28T00:16:14.564Z,12.30
2022-10-28T00:18:41.847Z,12.20
2022-10-28T00:21:11.475Z,12.10
2022-10-28T00:23:38.958Z,12.00
2022-10-28T00:26:05.853Z,12.00
2022-10-28T00:28:32.772Z,12.20
2022-10-28T00:31:06.544Z,12.10
2022-10-28T00:33:33.639Z,12.10
2022-10-28T00:36:18.607Z,12.10
2022-10-28T00:38:46.709Z,12.10
2022-10-28T00:41:15.003Z,12.00
2022-10-28T00:43:44.143Z,12.00
2022-10-28T00:46:24.458Z,12.00
2022-10-28T00:48:54.426Z,12.10
2022-10-28T00:51:22.349Z,12.10
2022-10-28T00:53:50.911Z,12.10
2022-10-28T00:56:18.715Z,12.10
2022-10-28T00:58:47.091Z,12.00
2022-10-28T01:01:13.959Z,12.20
2022-10-28T01:03:40.809Z,12.10
2022-10-28T01:06:08.307Z,12.20
2022-10-28T01:08:35.299Z,12.20
2022-10-28T01:11:08.528Z,12.10
2022-10-28T01:13:38.417Z,12.00
2022-10-28T01:16:11.061Z,12.10
2022-10-28T01:18:46.942Z,12.20
2022-10-28T01:21:23.067Z,12.00
2022-10-28T01:24:22.812Z,11.90
2022-10-28T01:26:49.974Z,12.10
2022-10-28T01:29:19.969Z,12.10
2022-10-28T01:31:49.929Z,12.00
2022-10-28T01:34:16.759Z,11.90
2022-10-28T01:37:02.025Z,11.90
2022-10-28T01:39:32.586Z,11.90
2022-10-28T01:42:07.696Z,11.80
2022-10-28T01:44:38.966Z,11.80
2022-10-28T01:47:08.730Z,11.80
2022-10-28T01:49:42.459Z,11.80
2022-10-28T01:52:12.523Z,11.80
2022-10-28T01:54:41.174Z,12.00
2022-10-28T01:57:09.143Z,11.90
2022-10-28T01:59:36.595Z,11.80
2022-10-28T02:04:35.310Z,11.90
2022-10-28T02:07:02.223Z,11.80
2022-10-28T02:09:48.078Z,11.80
2022-10-28T02:12:31.725Z,12.00
2022-10-28T02:15:01.782Z,11.90
2022-10-28T02:17:46.852Z,11.90
2022-10-28T02:20:18.185Z,11.90
2022-10-28T02:22:49.400Z,11.80
2022-10-28T02:25:19.407Z,11.80
2022-10-28T02:27:46.191Z,11.80
2022-10-28T02:30:17.131Z,11.90
2022-10-28T02:32:46.388Z,12.00
2022-10-28T02:35:25.610Z,12.00
2022-10-28T02:37:53.513Z,12.00
2022-10-28T02:40:23.446Z,12.00
2022-10-28T02:42:51.983Z,12.00
2022-10-28T02:45:25.797Z,12.00
2022-10-28T02:47:58.812Z,12.00
2022-10-28T02:50:30.435Z,12.00
2022-10-28T02:52:58.949Z,11.90
2022-10-28T02:55:29.875Z,11.90
2022-10-28T02:57:57.215Z,12.10
2022-10-28T03:00:25.038Z,12.10
2022-10-28T03:02:52.175Z,12.00
2022-10-28T03:05:19.067Z,11.90
2022-10-28T03:07:45.914Z,12.20
2022-10-28T03:10:12.760Z,12.10
2022-10-28T03:12:39.654Z,12.00
2022-10-28T03:15:06.886Z,12.00
2022-10-28T03:17:33.721Z,11.90
2022-10-28T03:20:00.553Z,12.20
2022-10-28T03:22:27.467Z,12.10
2022-10-28T03:24:54.388Z,12.10
2022-10-28T03:27:21.299Z,12.00
2022-10-28T03:29:48.151Z,11.90
2022-10-28T03:32:15.015Z,11.90
2022-10-28T03:34:41.900Z,12.10
2022-10-28T03:37:08.803Z,12.00
2022-10-28T03:39:35.711Z,12.10
2022-10-28T03:42:02.602Z,12.00
2022-10-28T03:44:29.595Z,12.20
2022-10-28T03:46:56.555Z,12.40
2022-10-28T03:49:23.398Z,12.50
2022-10-28T03:51:50.450Z,12.30
2022-10-28T03:54:17.389Z,12.10
2022-10-28T03:56:44.350Z,12.20
2022-10-28T03:59:12.412Z,12.20
2022-10-28T04:01:41.079Z,12.10
2022-10-28T04:04:08.029Z,12.10
2022-10-28T04:06:34.893Z,12.10
2022-10-28T04:09:01.825Z,12.00
2022-10-28T04:11:28.729Z,12.20
2022-10-28T04:13:55.731Z,12.10
2022-10-28T04:16:22.570Z,12.10
2022-10-28T04:18:49.425Z,12.20
2022-10-28T04:21:16.279Z,12.10
2022-10-28T04:23:43.184Z,12.20
2022-10-28T04:26:10.159Z,12.30
2022-10-28T04:28:37.019Z,12.40
2022-10-28T04:31:03.889Z,12.40
2022-10-28T04:33:30.755Z,12.40
2022-10-28T04:35:57.637Z,12.30
2022-10-28T04:40:56.759Z,12.40
2022-10-28T04:43:23.577Z,12.30
2022-10-28T04:45:50.494Z,12.30
2022-10-28T04:48:17.394Z,12.40
2022-10-28T04:50:44.537Z,12.40
2022-10-28T04:53:12.582Z,12.40
2022-10-28T04:55:39.422Z,12.50
2022-10-28T04:58:06.371Z,12.30
2022-10-28T05:00:33.272Z,12.40
2022-10-28T05:03:03.097Z,12.50
2022-10-28T05:05:30.182Z,12.40
2022-10-28T05:07:57.289Z,12.30
2022-10-28T05:10:24.758Z,12.20
2022-10-28T05:12:51.588Z,12.10
2022-10-28T05:15:18.435Z,12.00
2022-10-28T05:17:46.274Z,11.90
2022-10-28T05:20:14.794Z,11.90
2022-10-28T05:22:57.121Z,11.90
2022-10-28T05:25:24.206Z,11.90
2022-10-28T05:27:51.388Z,11.80
2022-10-28T05:30:18.698Z,11.90
2022-10-28T05:32:47.401Z,11.90
2022-10-28T05:35:16.231Z,11.90
2022-10-28T05:37:43.359Z,12.00
2022-10-28T05:40:10.617Z,11.90
2022-10-28T05:42:41.835Z,11.90
2022-10-28T05:45:09.804Z,12.00
2022-10-28T05:47:39.291Z,11.80
2022-10-28T05:50:07.214Z,11.90
2022-10-28T05:52:34.049Z,11.90
2022-10-28T05:55:01.261Z,12.10
2022-10-28T05:57:28.165Z,11.80
2022-10-28T05:59:55.361Z,11.60
2022-10-28T06:02:22.175Z,11.70
2022-10-28T06:04:49.047Z,11.50
2022-10-28T06:07:15.866Z,11.40
2022-10-28T06:09:42.774Z,11.50
2022-10-28T06:12:08.263Z,11.60
2022-10-28T06:14:35.091Z,11.50
2022-10-28T06:17:02.072Z,11.40
2022-10-28T06:19:28.974Z,11.40
2022-10-28T06:21:55.880Z,11.60
2022-10-28T06:24:22.756Z,11.40
2022-10-28T06:26:49.759Z,11.30
2022-10-28T06:29:16.991Z,11.30
2022-10-28T06:31:43.908Z,11.40
2022-10-28T06:34:11.145Z,11.50
2022-10-28T06:36:38.422Z,11.70
2022-10-28T06:39:05.582Z,11.80
2022-10-28T06:41:32.571Z,11.80
2022-10-28T06:43:59.544Z,11.90
2022-10-28T06:46:26.850Z,12.00
2022-10-28T06:48:55.688Z,12.00
2022-10-28T06:51:23.023Z,12.20
2022-10-28T06:53:50.483Z,12.30
2022-10-28T06:56:17.848Z,12.30
2022-10-28T06:58:44.738Z,12.30
2022-10-28T07:01:11.609Z,12.40
2022-10-28T07:03:38.513Z,12.50
2022-10-28T07:06:05.752Z,12.70
2022-10-28T07:08:32.831Z,12.70
2022-10-28T07:11:00.367Z,12.90
2022-10-28T07:13:27.471Z,13.10
2022-10-28T07:15:55.237Z,13.20
2022-10-28T07:18:22.635Z,13.20
2022-10-28T07:20:49.554Z,13.50
2022-10-28T07:23:16.711Z,13.50
2022-10-28T07:25:43.899Z,13.60
2022-10-28T07:28:10.808Z,13.90
2022-10-28T07:30:37.654Z,14.10
2022-10-28T07:33:05.320Z,14.40
2022-10-28T07:35:32.396Z,14.60
2022-10-28T07:37:59.334Z,14.70
2022-10-28T07:40:26.654Z,14.80
2022-10-28T07:42:53.994Z,14.60
2022-10-28T07:45:20.936Z,14.80
2022-10-28T07:47:47.814Z,14.80
2022-10-28T07:50:14.796Z,14.80
2022-10-28T07:52:41.915Z,14.60
2022-10-28T07:55:08.924Z,14.60
2022-10-28T07:57:35.883Z,14.80
2022-10-28T08:00:03.363Z,14.90
2022-10-28T08:02:37.853Z,15.40
2022-10-28T08:05:05.527Z,15.50
2022-10-28T08:07:34.886Z,15.90
2022-10-28T08:10:05.173Z,16.00
2022-10-28T08:12:31.998Z,16.00
2022-10-28T08:14:58.952Z,16.20
2022-10-28T08:17:27.035Z,16.30
2022-10-28T08:19:53.970Z,16.90
2022-10-28T08:22:20.812Z,17.20
2022-10-28T08:24:47.631Z,17.10
2022-10-28T08:27:14.508Z,17.10
2022-10-28T08:29:41.406Z,17.40
2022-10-28T08:32:09.266Z,16.70
2022-10-28T08:34:39.216Z,16.10
2022-10-28T08:37:09.698Z,16.00
2022-10-28T08:39:36.653Z,16.00
2022-10-28T08:42:08.559Z,15.80
2022-10-28T08:44:44.616Z,15.60
2022-10-28T08:47:32.125Z,15.70
2022-10-28T08:50:02.442Z,16.00
2022-10-28T08:52:29.330Z,16.50
2022-10-28T08:55:04.884Z,16.80
2022-10-28T08:57:37.849Z,16.70
2022-10-28T09:00:34.287Z,16.80
2022-10-28T09:03:16.863Z,16.80
2022-10-28T09:05:45.469Z,16.70
2022-10-28T09:08:21.665Z,16.40
2022-10-28T09:10:48.696Z,16.80
2022-10-28T09:13:34.262Z,16.90
2022-10-28T09:16:01.192Z,16.80
2022-10-28T09:18:51.812Z,16.80
2022-10-28T09:21:32.032Z,16.80
2022-10-28T09:24:07.888Z,17.10
2022-10-28T09:26:47.055Z,18.70
2022-10-28T09:29:17.093Z,19.50
2022-10-28T09:32:06.999Z,19.60
2022-10-28T09:34:43.143Z,19.20
2022-10-28T09:37:21.515Z,20.30
2022-10-28T09:39:53.097Z,21.80
2022-10-28T09:42:27.850Z,24.30
2022-10-28T09:44:56.812Z,26.40
2022-10-28T09:47:25.368Z,26.80
2022-10-28T09:49:54.259Z,27.10
2022-10-28T09:52:23.659Z,25.30
2022-10-28T09:54:52.408Z,25.60
2022-10-28T09:57:19.906Z,24.80
2022-10-28T09:59:47.068Z,25.70
2022-10-28T10:02:26.015Z,24.70
2022-10-28T10:04:53.769Z,22.90
2022-10-28T10:07:29.022Z,21.80
2022-10-28T10:09:57.302Z,21.70
2022-10-28T10:12:24.579Z,21.40
2022-10-28T10:14:53.887Z,20.70
2022-10-28T10:17:23.003Z,20.00
2022-10-28T10:20:19.432Z,19.70
2022-10-28T10:22:48.078Z,19.20
2022-10-28T10:25:17.959Z,19.40
2022-10-28T10:27:57.733Z,19.50
2022-10-28T10:30:28.040Z,19.40
2022-10-28T10:32:55.245Z,19.20
2022-10-28T10:35:29.397Z,19.20
2022-10-28T10:37:57.891Z,19.20
2022-10-28T10:40:26.435Z,19.00
2022-10-28T10:43:12.961Z,19.20
2022-10-28T10:45:40.848Z,19.00
2022-10-28T10:48:10.464Z,19.60
2022-10-28T10:50:39.037Z,20.10
2022-10-28T10:53:06.132Z,20.40
2022-10-28T10:55:35.215Z,20.80
2022-10-28T10:58:02.685Z,22.10
2022-10-28T11:00:32.544Z,22.70
2022-10-28T11:02:59.980Z,23.40
2022-10-28T11:05:35.663Z,25.50
2022-10-28T11:08:06.716Z,26.40
2022-10-28T11:10:34.853Z,27.10
2022-10-28T11:13:06.183Z,26.20
2022-10-28T11:15:33.131Z,24.70
2022-10-28T11:18:00.281Z,23.20
2022-10-28T11:20:31.267Z,23.30
2022-10-28T11:22:58.201Z,23.20
2022-10-28T11:25:25.016Z,22.90
2022-10-28T11:28:06.438Z,22.70
2022-10-28T11:30:39.252Z,22.70
2022-10-28T11:36:07.485Z,22.50
2022-10-28T11:39:06.468Z,22.10
2022-10-28T11:41:52.053Z,22.80
2022-10-28T11:44:26.470Z,24.20
2022-10-28T11:47:20.062Z,25.80
2022-10-28T11:50:07.230Z,27.30
2022-10-28T11:52:54.281Z,27.00
2022-10-28T11:55:42.672Z,28.10
2022-10-28T12:00:46.632Z,26.70
2022-10-28T12:03:26.337Z,26.50
2022-10-28T12:06:04.150Z,26.40
2022-10-28T12:08:49.534Z,26.70
2022-10-28T12:11:16.401Z,27.00
2022-10-28T12:13:49.655Z,26.70
2022-10-28T12:16:16.718Z,26.40
2022-10-28T12:19:06.876Z,25.50
2022-10-28T12:21:38.823Z,26.50
2022-10-28T12:24:09.569Z,26.40
2022-10-28T12:26:39.621Z,26.80
2022-10-28T12:29:12.883Z,27.30
2022-10-28T12:31:45.027Z,27.60
2022-10-28T12:34:14.505Z,27.20
2022-10-28T12:36:53.007Z,26.40
2022-10-28T12:39:25.832Z,26.70
2022-10-28T12:41:52.717Z,27.40
2022-10-28T12:44:20.681Z,27.90
2022-10-28T12:47:06.265Z,28.10
2022-10-28T12:49:45.829Z,27.20
2022-10-28T12:52:25.096Z,28.10
2022-10-28T12:54:57.156Z,30.00
2022-10-28T12:57:24.974Z,29.70
2022-10-28T12:59:54.457Z,29.60
2022-10-28T13:02:26.854Z,30.20
2022-10-28T13:04:53.890Z,31.50
2022-10-28T13:07:39.578Z,31.00
2022-10-28T13:13:00.277Z,31.50
2022-10-28T13:15:46.250Z,32.10
2022-10-28T13:18:31.877Z,30.40
2022-10-28T13:20:58.739Z,31.40
2022-10-28T13:23:40.798Z,32.90
2022-10-28T13:26:22.256Z,32.40
2022-10-28T13:28:51.648Z,33.10
2022-10-28T13:31:19.916Z,34.10
2022-10-28T13:33:58.229Z,31.90
2022-10-28T13:36:26.564Z,31.70
2022-10-28T13:39:00.723Z,31.70
2022-10-28T13:41:39.124Z,30.70
2022-10-28T13:44:10.022Z,29.30
2022-10-28T13:46:56.427Z,28.70
2022-10-28T13:49:26.801Z,28.40
2022-10-28T13:52:08.976Z,27.70
2022-10-28T13:54:38.887Z,27.10
2022-10-28T13:57:08.816Z,26.80
2022-10-28T14:00:02.269Z,26.40
2022-10-28T14:02:38.581Z,26.20
2022-10-28T14:05:10.399Z,26.10
2022-10-28T14:07:40.248Z,26.10
2022-10-28T14:10:20.202Z,25.80
2022-10-28T14:12:56.935Z,25.20
2022-10-28T14:15:27.252Z,24.70
2022-10-28T14:18:37.571Z,24.10
2022-10-28T14:21:02.050Z,23.60
2022-10-28T14:23:29.050Z,23.40
2022-10-28T14:25:58.860Z,23.10
2022-10-28T14:28:29.111Z,23.10
2022-10-28T14:31:08.180Z,23.10
2022-10-28T14:33:36.207Z,22.90
2022-10-28T14:36:15.324Z,22.60
2022-10-28T14:38:45.148Z,22.40
2022-10-28T14:41:26.154Z,22.10
2022-10-28T14:43:53.090Z,22.00
2022-10-28T14:46:32.726Z,22.10
2022-10-28T14:49:00.906Z,21.90
2022-10-28T14:51:29.491Z,21.90
2022-10-28T14:53:59.720Z,21.90
2022-10-28T14:56:28.419Z,21.90
2022-10-28T14:58:58.093Z,21.90
2022-10-28T15:01:27.063Z,21.90
2022-10-28T15:03:55.984Z,22.00
2022-10-28T15:06:27.010Z,21.90
2022-10-28T15:08:54.388Z,21.80
2022-10-28T15:11:21.850Z,21.80
2022-10-28T15:13:52.696Z,21.70
2022-10-28T15:16:21.140Z,21.60
2022-10-28T15:18:49.259Z,21.50
2022-10-28T15:21:17.653Z,21.40
2022-10-28T15:23:47.312Z,21.20
2022-10-28T15:26:15.565Z,21.30
2022-10-28T15:28:42.925Z,21.00
2022-10-28T15:31:10.167Z,20.90
2022-10-28T15:33:38.322Z,21.00
2022-10-28T15:36:08.301Z,20.70
2022-10-28T15:38:38.268Z,20.50
2022-10-28T15:41:23.943Z,20.40
2022-10-28T15:43:55.069Z,20.30
2022-10-28T15:46:23.135Z,20.20
2022-10-28T15:48:53.726Z,20.00
2022-10-28T15:51:21.170Z,19.70
2022-10-28T15:54:08.633Z,19.60
2022-10-28T15:56:52.547Z,19.40
2022-10-28T15:59:23.446Z,19.20
2022-10-28T16:01:50.435Z,19.00
2022-10-28T16:04:23.234Z,19.00
2022-10-28T16:06:52.057Z,18.80
2022-10-28T16:09:22.021Z,18.50
2022-10-28T16:11:52.105Z,18.30
2022-10-28T16:14:22.009Z,18.20
2022-10-28T16:16:48.881Z,18.10
2022-10-28T16:19:35.960Z,18.00
2022-10-28T16:22:02.828Z,17.80
2022-10-28T16:24:29.649Z,17.90
2022-10-28T16:27:09.777Z,17.70
2022-10-28T16:29:36.810Z,17.60
2022-10-28T16:32:03.647Z,17.60
2022-10-28T16:34:30.486Z,17.60
2022-10-28T16:36:57.293Z,17.50
2022-10-28T16:39:24.139Z,17.80
2022-10-28T16:41:51.893Z,17.60
2022-10-28T16:44:18.931Z,17.30
2022-10-28T16:46:45.780Z,17.10
2022-10-28T16:49:12.590Z,16.90
2022-10-28T16:51:39.905Z,17.00
2022-10-28T16:54:07.562Z,17.00
2022-10-28T16:56:34.405Z,16.70
2022-10-28T16:59:01.237Z,16.70
2022-10-28T17:01:28.187Z,16.70
2022-10-28T17:03:55.076Z,16.40
2022-10-28T17:06:21.945Z,16.30
2022-10-28T17:09:02.401Z,16.10
2022-10-28T17:13:58.166Z,16.00
2022-10-28T17:16:25.500Z,15.90
2022-10-28T17:18:52.289Z,15.90
2022-10-28T17:21:19.229Z,15.90
2022-10-28T17:23:46.076Z,15.80
2022-10-28T17:26:12.919Z,15.90
2022-10-28T17:28:39.679Z,15.70
2022-10-28T17:31:07.925Z,15.50
2022-10-28T17:33:35.037Z,15.30
2022-10-28T17:36:02.746Z,15.20
2022-10-28T17:38:29.854Z,15.20
2022-10-28T17:40:57.446Z,15.10
2022-10-28T17:43:24.439Z,15.20
2022-10-28T17:45:51.585Z,15.10
2022-10-28T17:48:18.619Z,15.00
2022-10-28T17:50:53.005Z,15.00
2022-10-28T17:53:20.261Z,15.10
2022-10-28T17:55:55.072Z,15.10
2022-10-28T17:58:22.100Z,15.30
2022-10-28T18:00:48.901Z,15.30
2022-10-28T18:03:15.742Z,15.40
2022-10-28T18:05:42.539Z,15.40
2022-10-28T18:08:09.402Z,15.50
2022-10-28T18:10:36.200Z,15.70
2022-10-28T18:13:02.998Z,15.60
2022-10-28T18:15:29.839Z,15.50
2022-10-28T18:17:56.697Z,15.40
2022-10-28T18:20:23.558Z,15.40
2022-10-28T18:22:50.379Z,15.30
2022-10-28T18:25:17.136Z,15.30
2022-10-28T18:27:43.930Z,15.60
2022-10-28T18:30:11.221Z,15.60
2022-10-28T18:32:38.058Z,15.60
2022-10-28T18:35:05.215Z,15.50
2022-10-28T18:37:32.090Z,15.40
2022-10-28T18:39:58.895Z,15.30
2022-10-28T18:42:25.717Z,15.20
2022-10-28T18:44:58.426Z,15.30
2022-10-28T18:47:25.738Z,15.20
2022-10-28T18:49:54.378Z,15.10
2022-10-28T18:52:21.262Z,15.00
2022-10-28T18:54:48.033Z,14.80
2022-10-28T18:57:14.883Z,14.80
2022-10-28T19:00:05.128Z,15.00
2022-10-28T19:02:29.009Z,15.00
2022-10-28T19:04:55.927Z,14.90
2022-10-28T19:07:22.785Z,15.00
2022-10-28T19:09:49.629Z,14.90
2022-10-28T19:12:16.695Z,15.10
2022-10-28T19:14:43.514Z,15.00
2022-10-28T19:17:10.711Z,14.90
2022-10-28T19:19:39.340Z,15.00
2022-10-28T19:22:08.198Z,15.20
2022-10-28T19:24:35.173Z,15.40
2022-10-28T19:27:02.115Z,15.30
2022-10-28T19:29:28.925Z,15.40
2022-10-28T19:31:55.725Z,15.00
2022-10-28T19:34:22.579Z,15.00
2022-10-28T19:36:49.483Z,14.90
2022-10-28T19:39:16.349Z,14.80
2022-10-28T19:41:43.660Z,14.80
2022-10-28T19:44:10.539Z,14.60
2022-10-28T19:46:37.305Z,14.80
2022-10-28T19:49:05.769Z,14.60
2022-10-28T19:51:34.591Z,14.60
2022-10-28T19:54:05.790Z,14.60
2022-10-28T19:56:33.329Z,14.70
2022-10-28T19:59:00.766Z,14.40
2022-10-28T20:01:29.065Z,14.50
2022-10-28T20:03:56.349Z,14.50
2022-10-28T20:06:41.519Z,14.60
2022-10-28T20:09:08.416Z,14.40
2022-10-28T20:11:37.528Z,14.20
2022-10-28T20:14:09.986Z,14.40
2022-10-28T20:16:37.142Z,14.30
2022-10-28T20:19:04.586Z,14.10
2022-10-28T20:21:33.531Z,14.00
2022-10-28T20:24:00.741Z,14.20
2022-10-28T20:26:31.563Z,13.90
2022-10-28T20:28:59.025Z,14.00
2022-10-28T20:31:27.258Z,13.90
2022-10-28T20:33:58.827Z,14.10
2022-10-28T20:36:27.069Z,14.00
2022-10-28T20:38:58.221Z,13.90
2022-10-28T20:41:26.004Z,13.80
2022-10-28T20:43:53.446Z,13.70
2022-10-28T20:46:21.186Z,13.70
2022-10-28T20:48:48.473Z,13.90
2022-10-28T20:51:15.560Z,14.00
2022-10-28T20:53:42.492Z,13.90
2022-10-28T20:56:14.870Z,14.10
2022-10-28T20:58:41.715Z,13.80
2022-10-28T21:01:13.783Z,13.80
2022-10-28T21:03:41.353Z,14.00
2022-10-28T21:06:08.636Z,13.90
2022-10-28T21:08:35.672Z,13.80
2022-10-28T21:11:06.163Z,13.80
2022-10-28T21:13:33.482Z,13.70
2022-10-28T21:16:03.537Z,13.70
2022-10-28T21:18:30.293Z,13.60
2022-10-28T21:20:57.889Z,13.50
2022-10-28T21:23:25.166Z,13.60
2022-10-28T21:25:55.676Z,13.50
2022-10-28T21:28:22.781Z,13.60
2022-10-28T21:30:49.874Z,13.70
2022-10-28T21:33:18.890Z,13.60
2022-10-28T21:35:54.145Z,13.50
2022-10-28T21:38:21.036Z,13.50
2022-10-28T21:40:47.812Z,13.40
2022-10-28T21:43:15.635Z,13.20
2022-10-28T21:45:42.401Z,13.20
2022-10-28T21:48:09.193Z,13.10
2022-10-28T21:50:36.356Z,13.10
2022-10-28T21:53:04.095Z,13.10
2022-10-28T21:55:46.003Z,13.10
2022-10-28T21:58:14.761Z,13.10
2022-10-28T22:00:42.192Z,13.10
2022-10-28T22:03:09.634Z,13.10
2022-10-28T22:05:36.496Z,13.00
2022-10-28T22:08:04.999Z,12.90
2022-10-28T22:10:32.123Z,12.90
2022-10-28T22:12:59.051Z,13.00
2022-10-28T22:15:25.862Z,13.00
2022-10-28T22:17:52.877Z,13.00
2022-10-28T22:20:19.906Z,13.10
2022-10-28T22:22:46.865Z,13.00
2022-10-28T22:25:13.735Z,13.20
2022-10-28T22:27:40.747Z,13.10
2022-10-28T22:30:07.827Z,13.00
2022-10-28T22:32:34.680Z,12.80
2022-10-28T22:35:01.577Z,12.80
2022-10-28T22:37:28.362Z,12.80
2022-10-28T22:39:55.285Z,12.70
2022-10-28T22:42:22.124Z,12.60
2022-10-28T22:44:49.015Z,12.70
2022-10-28T22:47:15.807Z,12.70
2022-10-28T22:49:42.713Z,12.70
2022-10-28T22:52:09.488Z,12.60
2022-10-28T22:54:36.338Z,12.80
2022-10-28T22:57:03.238Z,12.80
2022-10-28T22:59:30.142Z,12.70
2022-10-28T23:01:57.034Z,12.50
2022-10-28T23:04:23.895Z,12.50
2022-10-28T23:06:50.691Z,12.70
2022-10-28T23:09:17.538Z,12.50
2022-10-28T23:11:44.344Z,12.60
2022-10-28T23:14:11.182Z,12.60
2022-10-28T23:16:37.989Z,12.80
2022-10-28T23:19:04.841Z,12.90
2022-10-28T23:21:31.692Z,12.90
2022-10-28T23:23:59.477Z,12.70
2022-10-28T23:26:27.654Z,12.70
2022-10-28T23:28:55.633Z,12.60
2022-10-28T23:31:23.189Z,12.70
2022-10-28T23:33:50.504Z,12.70
2022-10-28T23:36:17.328Z,12.60
2022-10-28T23:38:44.446Z,12.70
2022-10-28T23:41:15.449Z,12.50
2022-10-28T23:43:42.897Z,12.50
2022-10-28T23:46:10.239Z,12.40
2022-10-28T23:48:37.182Z,12.30
2022-10-28T23:51:04.168Z,12.30
2022-10-28T23:53:31.554Z,12.20
2022-10-28T23:55:58.673Z,12.00
2022-10-28T23:58:25.562Z,12.10
